createdAt,value
2023-01-05T00:01:25.148Z,26.27
2023-01-05T00:05:27.954Z,25.88
2023-01-05T00:09:30.711Z,31.67
2023-01-05T00:13:52.073Z,36.78
2023-01-05T00:18:13.293Z,39.63
2023-01-05T00:22:30.692Z,35.83
2023-01-05T00:26:33.700Z,29.33
2023-01-05T00:30:43.433Z,29.80
2023-01-05T00:34:47.290Z,29.85
2023-01-05T00:38:50.356Z,26.02
2023-01-05T00:42:53.255Z,25.67
2023-01-05T00:46:56.052Z,33.35
2023-01-05T00:50:58.826Z,29.65
2023-01-05T00:55:01.572Z,28.33
2023-01-05T00:59:04.454Z,31.17
2023-01-05T01:03:07.348Z,30.45
2023-01-05T01:07:10.114Z,36.83
2023-01-05T01:11:13.220Z,46.20
2023-01-05T01:15:16.297Z,41.80
2023-01-05T01:19:22.584Z,28.90
2023-01-05T01:23:25.679Z,32.63
2023-01-05T01:27:31.005Z,29.45
2023-01-05T01:31:35.582Z,26.45
2023-01-05T01:35:38.718Z,29.13
2023-01-05T01:39:41.580Z,27.05
2023-01-05T01:43:53.474Z,26.48
2023-01-05T01:48:00.842Z,24.75
2023-01-05T01:52:03.893Z,28.30
2023-01-05T01:56:10.687Z,23.10
2023-01-05T02:00:15.014Z,23.40
2023-01-05T02:04:21.702Z,21.85
2023-01-05T02:08:42.359Z,20.55
2023-01-05T02:13:13.068Z,23.60
2023-01-05T02:17:38.021Z,20.08
2023-01-05T02:22:02.756Z,25.63
2023-01-05T02:26:21.025Z,24.45
2023-01-05T02:30:59.523Z,25.63
2023-01-05T02:35:23.221Z,23.25
2023-01-05T02:39:34.827Z,23.50
2023-01-05T02:43:43.269Z,21.42
2023-01-05T02:47:46.198Z,18.58
2023-01-05T02:51:55.700Z,17.80
2023-01-05T02:56:23.891Z,18.90
2023-01-05T03:00:32.479Z,23.05
2023-01-05T03:04:53.445Z,23.58
2023-01-05T03:09:03.221Z,27.13
2023-01-05T03:13:27.364Z,25.85
2023-01-05T03:17:34.669Z,26.63
2023-01-05T03:21:56.504Z,22.30
2023-01-05T03:26:19.716Z,27.58
2023-01-05T03:30:52.261Z,25.38
2023-01-05T03:35:30.628Z,23.90
2023-01-05T03:39:35.971Z,21.75
2023-01-05T03:43:42.997Z,22.02
2023-01-05T03:47:46.029Z,22.48
2023-01-05T03:51:49.156Z,24.23
2023-01-05T03:55:52.412Z,34.17
2023-01-05T03:59:55.702Z,28.50
2023-01-05T04:03:58.925Z,22.95
2023-01-05T04:08:01.999Z,21.65
2023-01-05T04:12:05.563Z,23.02
2023-01-05T04:16:14.700Z,26.75
2023-01-05T04:20:18.550Z,20.83
2023-01-05T04:24:21.385Z,27.05
2023-01-05T04:28:25.106Z,22.92
2023-01-05T04:32:31.732Z,20.15
2023-01-05T04:36:34.608Z,15.60
2023-01-05T04:40:37.896Z,16.30
2023-01-05T04:44:40.809Z,15.63
2023-01-05T04:48:43.736Z,14.45
2023-01-05T04:52:46.898Z,20.33
2023-01-05T04:56:49.931Z,17.33
2023-01-05T05:00:53.526Z,15.43
2023-01-05T05:04:57.652Z,13.07
2023-01-05T05:09:00.583Z,13.27
2023-01-05T05:13:05.496Z,13.20
2023-01-05T05:17:08.291Z,12.73
2023-01-05T05:21:11.678Z,12.38
2023-01-05T05:25:15.920Z,13.15
2023-01-05T05:29:22.382Z,14.40
2023-01-05T05:33:25.819Z,13.25
2023-01-05T05:37:28.580Z,11.48
2023-01-05T05:41:31.478Z,13.63
2023-01-05T05:45:34.391Z,14.20
2023-01-05T05:49:37.138Z,12.35
2023-01-05T05:53:39.932Z,13.13
2023-01-05T05:57:42.661Z,13.63
2023-01-05T06:01:45.460Z,13.23
2023-01-05T06:05:48.334Z,13.45
2023-01-05T06:09:51.078Z,13.60
2023-01-05T06:13:53.981Z,13.73
2023-01-05T06:17:56.921Z,14.02
2023-01-05T06:21:59.684Z,14.18
2023-01-05T06:26:02.489Z,13.88
2023-01-05T06:30:05.716Z,14.20
2023-01-05T06:34:08.442Z,13.68
2023-01-05T06:38:11.379Z,13.63
2023-01-05T06:42:14.962Z,14.82
2023-01-05T06:46:19.761Z,17.38
2023-01-05T06:50:22.524Z,15.35
2023-01-05T06:54:25.243Z,15.23
2023-01-05T06:58:28.043Z,16.35
2023-01-05T07:02:30.829Z,14.70
2023-01-05T07:06:36.250Z,14.13
2023-01-05T07:10:39.010Z,14.48
2023-01-05T07:14:41.876Z,14.77
2023-01-05T07:18:44.829Z,16.38
2023-01-05T07:22:47.510Z,15.27
2023-01-05T07:26:50.409Z,13.13
2023-01-05T07:30:53.451Z,13.77
2023-01-05T07:34:56.355Z,13.82
2023-01-05T07:38:59.745Z,12.73
2023-01-05T07:43:02.931Z,11.07
2023-01-05T07:47:05.817Z,12.18
2023-01-05T07:51:10.121Z,13.20
2023-01-05T07:55:14.874Z,14.43
2023-01-05T07:59:18.083Z,14.20
2023-01-05T08:03:21.474Z,14.90
2023-01-05T08:07:24.463Z,13.52
2023-01-05T08:11:27.377Z,18.77
2023-01-05T08:15:30.084Z,16.17
2023-01-05T08:19:33.408Z,16.70
2023-01-05T08:23:38.213Z,17.55
2023-01-05T08:27:41.191Z,18.73
2023-01-05T08:31:44.273Z,17.17
2023-01-05T08:35:47.377Z,19.83
2023-01-05T08:39:50.851Z,16.15
2023-01-05T08:43:56.049Z,16.27
2023-01-05T08:47:58.857Z,17.52
2023-01-05T08:52:01.821Z,17.65
2023-01-05T08:56:04.868Z,19.90
2023-01-05T09:00:08.373Z,20.65
2023-01-05T09:04:11.225Z,22.25
2023-01-05T09:08:13.921Z,19.05
2023-01-05T09:12:17.109Z,18.90
2023-01-05T09:20:48.621Z,14.98
2023-01-05T09:24:51.984Z,14.15
2023-01-05T09:28:55.266Z,16.00
2023-01-05T09:32:58.181Z,14.18
2023-01-05T09:37:00.937Z,13.98
2023-01-05T09:41:16.571Z,13.15
2023-01-05T09:45:26.396Z,12.10
2023-01-05T09:49:31.132Z,8.52
2023-01-05T09:53:33.889Z,8.00
2023-01-05T09:57:36.796Z,8.27
2023-01-05T10:01:41.130Z,8.48
2023-01-05T10:05:45.438Z,8.40
2023-01-05T10:09:48.734Z,8.02
2023-01-05T10:14:09.012Z,7.22
2023-01-05T10:18:19.357Z,7.80
2023-01-05T10:22:36.800Z,6.38
2023-01-05T10:27:23.587Z,5.13
2023-01-05T10:31:24.108Z,5.63
2023-01-05T10:36:01.568Z,10.20
2023-01-05T10:40:18.068Z,9.95
2023-01-05T10:44:51.822Z,10.88
2023-01-05T10:48:54.630Z,13.40
2023-01-05T10:52:58.320Z,8.55
2023-01-05T10:57:34.824Z,7.85
2023-01-05T11:01:43.301Z,6.75
2023-01-05T11:05:49.508Z,6.97
2023-01-05T11:09:52.533Z,7.57
2023-01-05T11:13:57.510Z,8.80
2023-01-05T11:18:01.072Z,8.32
2023-01-05T11:22:03.885Z,11.55
2023-01-05T11:26:21.194Z,12.75
2023-01-05T11:30:25.504Z,13.30
2023-01-05T11:34:45.634Z,15.18
2023-01-05T11:38:54.746Z,13.90
2023-01-05T11:42:58.772Z,14.27
2023-01-05T11:47:01.650Z,12.00
2023-01-05T11:51:04.789Z,7.75
2023-01-05T11:55:33.077Z,7.60
2023-01-05T11:59:38.534Z,7.60
2023-01-05T12:04:01.459Z,7.00
2023-01-05T12:08:20.769Z,8.25
2023-01-05T12:12:44.800Z,7.38
2023-01-05T12:16:52.354Z,9.00
2023-01-05T12:21:17.286Z,8.20
2023-01-05T12:25:38.778Z,7.45
2023-01-05T12:31:59.450Z,6.50
2023-01-05T12:34:16.598Z,7.70
2023-01-05T12:38:33.489Z,6.75
2023-01-05T12:42:53.825Z,8.40
2023-01-05T12:47:14.715Z,7.88
2023-01-05T12:51:37.866Z,7.55
2023-01-05T12:55:51.730Z,7.53
2023-01-05T13:00:06.157Z,7.50
2023-01-05T13:04:31.059Z,8.50
2023-01-05T13:08:49.165Z,8.57
2023-01-05T13:12:59.593Z,7.65
2023-01-05T13:17:12.962Z,8.10
2023-01-05T13:21:16.467Z,8.15
2023-01-05T13:25:25.345Z,8.07
2023-01-05T13:29:33.322Z,8.48
2023-01-05T13:34:03.932Z,8.13
2023-01-05T13:38:25.036Z,7.72
2023-01-05T13:42:46.142Z,7.70
2023-01-05T13:47:27.748Z,5.82
2023-01-05T13:51:54.419Z,7.18
2023-01-05T13:56:01.156Z,7.13
2023-01-05T14:00:12.123Z,5.57
2023-01-05T14:04:32.665Z,5.72
2023-01-05T14:08:38.894Z,5.20
2023-01-05T14:12:44.752Z,5.38
2023-01-05T14:16:48.744Z,4.53
2023-01-05T14:20:54.436Z,4.40
2023-01-05T14:24:59.356Z,4.10
2023-01-05T14:29:02.151Z,4.70
2023-01-05T14:33:06.288Z,4.80
2023-01-05T14:37:34.830Z,5.22
2023-01-05T14:41:38.517Z,4.93
2023-01-05T14:45:41.602Z,5.10
2023-01-05T14:49:55.996Z,5.45
2023-01-05T14:54:03.303Z,5.60
2023-01-05T14:58:13.690Z,5.63
2023-01-05T15:02:24.770Z,6.70
2023-01-05T15:06:51.836Z,6.47
2023-01-05T15:11:16.400Z,11.68
2023-01-05T15:15:44.511Z,9.13
2023-01-05T15:20:24.637Z,6.93
2023-01-05T15:24:59.865Z,8.25
2023-01-05T15:29:27.393Z,7.47
2023-01-05T15:33:52.413Z,7.22
2023-01-05T15:37:55.303Z,8.45
2023-01-05T15:42:02.043Z,8.13
2023-01-05T15:46:05.696Z,7.97
2023-01-05T15:50:19.591Z,8.27
2023-01-05T15:54:31.183Z,8.60
2023-01-05T15:58:43.450Z,7.22
2023-01-05T16:02:46.237Z,9.85
2023-01-05T16:06:57.208Z,7.50
2023-01-05T16:11:05.991Z,7.57
2023-01-05T16:15:15.388Z,15.68
2023-01-05T16:19:34.667Z,11.25
2023-01-05T16:23:44.590Z,8.48
2023-01-05T16:27:51.344Z,7.65
2023-01-05T16:36:09.487Z,11.18
2023-01-05T16:40:21.701Z,11.32
2023-01-05T16:44:24.779Z,9.43
2023-01-05T16:48:50.913Z,8.40
2023-01-05T16:52:54.462Z,8.32
2023-01-05T16:57:01.594Z,8.32
2023-01-05T17:01:26.113Z,7.60
2023-01-05T17:05:32.632Z,7.70
2023-01-05T17:09:36.745Z,9.57
2023-01-05T17:13:49.560Z,7.47
2023-01-05T17:17:55.369Z,9.32
2023-01-05T17:22:04.494Z,9.05
2023-01-05T17:26:11.393Z,9.27
2023-01-05T17:30:20.422Z,7.90
2023-01-05T17:34:24.034Z,8.18
2023-01-05T17:38:26.850Z,8.25
2023-01-05T17:42:44.723Z,7.90
2023-01-05T17:46:48.100Z,8.45
2023-01-05T17:50:52.930Z,8.77
2023-01-05T17:54:59.553Z,8.43
2023-01-05T17:59:03.620Z,11.90
2023-01-05T18:03:06.361Z,11.73
2023-01-05T18:07:09.792Z,9.90
2023-01-05T18:11:13.164Z,9.68
2023-01-05T18:15:17.680Z,9.07
2023-01-05T18:19:20.613Z,10.50
2023-01-05T18:23:24.520Z,8.25
2023-01-05T18:27:27.310Z,9.13
2023-01-05T18:31:30.202Z,8.48
2023-01-05T18:35:34.080Z,9.25
2023-01-05T18:39:38.083Z,9.95
2023-01-05T18:43:41.143Z,9.70
2023-01-05T18:47:43.999Z,8.75
2023-01-05T18:51:49.571Z,8.30
2023-01-05T18:55:52.398Z,7.50
2023-01-05T18:59:55.283Z,8.38
2023-01-05T19:03:58.337Z,38.28
2023-01-05T19:08:01.427Z,19.55
2023-01-05T19:12:04.400Z,17.63
2023-01-05T19:16:09.136Z,22.73
2023-01-05T19:20:12.192Z,23.05
2023-01-05T19:24:25.106Z,22.50
2023-01-05T19:28:28.087Z,30.35
2023-01-05T19:32:33.059Z,22.20
2023-01-05T19:36:36.220Z,23.58
2023-01-05T19:40:39.003Z,20.70
2023-01-05T19:44:41.996Z,20.65
2023-01-05T19:48:45.556Z,20.17
2023-01-05T19:52:48.734Z,19.90
2023-01-05T19:56:52.051Z,26.98
2023-01-05T20:00:54.906Z,46.17
2023-01-05T20:04:58.080Z,25.98
2023-01-05T20:09:05.097Z,29.98
2023-01-05T20:13:08.529Z,25.15
2023-01-05T20:17:12.733Z,22.85
2023-01-05T20:21:15.521Z,39.92
2023-01-05T20:25:18.337Z,26.60
2023-01-05T20:29:22.949Z,36.22
2023-01-05T20:33:26.084Z,23.92
2023-01-05T20:37:31.397Z,26.02
2023-01-05T20:41:40.771Z,24.13
2023-01-05T20:45:43.840Z,27.25
2023-01-05T20:49:47.131Z,32.67
2023-01-05T20:53:51.569Z,25.08
2023-01-05T20:57:55.114Z,23.75
2023-01-05T21:01:59.132Z,24.13
2023-01-05T21:06:02.053Z,25.48
2023-01-05T21:10:05.037Z,25.90
2023-01-05T21:14:09.398Z,25.88
2023-01-05T21:18:12.310Z,25.55
2023-01-05T21:22:15.736Z,28.30
2023-01-05T21:26:19.260Z,119.25
2023-01-05T21:30:22.305Z,38.67
2023-01-05T21:34:25.964Z,30.02
2023-01-05T21:39:00.867Z,26.88
2023-01-05T21:42:51.975Z,23.92
2023-01-05T21:46:54.671Z,25.48
2023-01-05T21:51:17.544Z,25.33
2023-01-05T21:55:39.091Z,21.60
2023-01-05T21:59:42.639Z,25.35
2023-01-05T22:03:45.670Z,26.00
2023-01-05T22:07:48.532Z,27.83
2023-01-05T22:11:51.650Z,29.95
2023-01-05T22:15:54.981Z,29.85
2023-01-05T22:19:57.739Z,24.13
2023-01-05T22:24:00.543Z,28.45
2023-01-05T22:28:03.424Z,28.63
2023-01-05T22:32:06.659Z,35.75
2023-01-05T22:36:10.726Z,27.30
2023-01-05T22:40:14.243Z,24.52
2023-01-05T22:44:17.298Z,25.15
2023-01-05T22:48:20.546Z,25.80
2023-01-05T22:52:26.101Z,26.83
2023-01-05T22:56:31.821Z,24.55
2023-01-05T23:00:34.760Z,24.27
2023-01-05T23:04:38.141Z,25.52
2023-01-05T23:08:41.987Z,25.98
2023-01-05T23:12:44.812Z,28.00
2023-01-05T23:16:47.880Z,24.38
2023-01-05T23:20:59.728Z,22.48
2023-01-05T23:25:02.508Z,24.60
2023-01-05T23:29:05.536Z,24.33
2023-01-05T23:33:08.479Z,24.48
2023-01-05T23:37:11.304Z,25.13
2023-01-05T23:41:16.109Z,23.45
2023-01-05T23:45:19.232Z,22.17
2023-01-05T23:49:22.027Z,26.00
2023-01-05T23:53:26.249Z,25.88
2023-01-05T23:57:30.510Z,24.20
